createdAt,value
2023-04-15T00:00:02.611Z,99384.00
2023-04-15T00:02:40.692Z,99386.00
2023-04-15T00:05:09.104Z,99373.00
2023-04-15T00:07:36.984Z,99375.00
2023-04-15T00:10:05.836Z,99373.00
2023-04-15T00:12:33.504Z,99374.00
2023-04-15T00:15:01.842Z,99365.00
2023-04-15T00:17:29.544Z,99362.00
2023-04-15T00:19:57.388Z,99364.00
2023-04-15T00:22:25.034Z,99365.00
2023-04-15T00:24:54.496Z,99361.00
2023-04-15T00:27:22.184Z,99367.00
2023-04-15T00:29:49.869Z,99365.00
2023-04-15T00:32:17.504Z,99357.00
2023-04-15T00:34:45.785Z,99357.00
2023-04-15T00:37:13.775Z,99355.00
2023-04-15T00:39:41.538Z,99353.00
2023-04-15T00:42:09.730Z,99355.00
2023-04-15T00:44:37.783Z,99350.00
2023-04-15T00:47:06.361Z,99352.00
2023-04-15T00:49:34.356Z,99346.00
2023-04-15T00:52:02.650Z,99350.00
2023-04-15T00:54:31.678Z,99348.00
2023-04-15T00:57:00.957Z,99345.00
2023-04-15T00:59:29.827Z,99344.00
2023-04-15T01:01:57.753Z,99348.00
2023-04-15T01:04:26.492Z,99353.00
2023-04-15T01:06:55.380Z,99341.00
2023-04-15T01:09:23.159Z,99346.00
2023-04-15T01:11:52.087Z,99339.00
2023-04-15T01:14:20.369Z,99343.00
2023-04-15T01:16:48.365Z,99337.00
2023-04-15T01:19:18.435Z,99332.00
2023-04-15T01:21:46.446Z,99340.00
2023-04-15T01:24:16.699Z,99328.00
2023-04-15T01:26:44.766Z,99326.00
2023-04-15T01:29:12.708Z,99322.00
2023-04-15T01:31:40.326Z,99323.00
2023-04-15T01:34:07.973Z,99312.00
2023-04-15T01:36:35.876Z,99319.00
2023-04-15T01:39:04.214Z,99318.00
2023-04-15T01:41:31.950Z,99322.00
2023-04-15T01:43:59.549Z,99313.00
2023-04-15T01:46:27.904Z,99314.00
2023-04-15T01:48:55.942Z,99313.00
2023-04-15T01:51:23.846Z,99308.00
2023-04-15T01:53:52.538Z,99312.00
2023-04-15T01:56:20.424Z,99308.00
2023-04-15T01:58:48.405Z,99299.00
2023-04-15T02:01:22.512Z,99306.00
2023-04-15T02:03:50.697Z,99309.00
2023-04-15T02:06:18.734Z,99306.00
2023-04-15T02:08:46.600Z,99297.00
2023-04-15T02:11:14.296Z,99304.00
2023-04-15T02:13:42.205Z,99299.00
2023-04-15T02:16:20.321Z,99299.00
2023-04-15T02:18:48.254Z,99293.00
2023-04-15T02:21:15.944Z,99299.00
2023-04-15T02:23:44.173Z,99292.00
2023-04-15T02:26:14.601Z,99297.00
2023-04-15T02:28:42.317Z,99305.00
2023-04-15T02:31:10.127Z,99296.00
2023-04-15T02:33:38.119Z,99304.00
2023-04-15T02:36:08.138Z,99300.00
2023-04-15T02:38:36.235Z,99299.00
2023-04-15T02:41:03.793Z,99310.00
2023-04-15T02:43:31.886Z,99307.00
2023-04-15T02:46:01.129Z,99312.00
2023-04-15T02:48:29.096Z,99319.00
2023-04-15T02:51:16.045Z,99308.00
2023-04-15T02:53:43.724Z,99310.00
2023-04-15T02:56:11.997Z,99305.00
2023-04-15T02:58:40.979Z,99315.00
2023-04-15T03:01:12.145Z,99308.00
2023-04-15T03:03:41.155Z,99308.00
2023-04-15T03:06:09.263Z,99304.00
2023-04-15T03:08:37.735Z,99296.00
2023-04-15T03:11:09.288Z,99305.00
2023-04-15T03:13:39.801Z,99298.00
2023-04-15T03:16:14.194Z,99292.00
2023-04-15T03:18:42.934Z,99294.00
2023-04-15T03:21:11.012Z,99295.00
2023-04-15T03:23:39.767Z,99290.00
2023-04-15T03:26:07.607Z,99293.00
2023-04-15T03:28:35.415Z,99290.00
2023-04-15T03:31:03.178Z,99288.00
2023-04-15T03:33:31.377Z,99284.00
2023-04-15T03:35:59.231Z,99283.00
2023-04-15T03:38:27.423Z,99284.00
2023-04-15T03:40:55.339Z,99279.00
2023-04-15T03:43:22.961Z,99285.00
2023-04-15T03:45:50.907Z,99279.00
2023-04-15T03:48:18.526Z,99285.00
2023-04-15T03:50:46.598Z,99284.00
2023-04-15T03:53:15.876Z,99287.00
2023-04-15T03:55:44.099Z,99280.00
2023-04-15T03:58:13.343Z,99277.00
2023-04-15T04:00:41.759Z,99287.00
2023-04-15T04:03:09.837Z,99281.00
2023-04-15T04:05:39.313Z,99280.00
2023-04-15T04:08:07.408Z,99275.00
2023-04-15T04:10:35.735Z,99280.00
2023-04-15T04:13:03.596Z,99283.00
2023-04-15T04:15:32.044Z,99281.00
2023-04-15T04:17:59.802Z,99282.00
2023-04-15T04:20:27.613Z,99284.00
2023-04-15T04:22:55.373Z,99283.00
2023-04-15T04:25:23.130Z,99277.00
2023-04-15T04:27:50.961Z,99282.00
2023-04-15T04:30:18.863Z,99281.00
2023-04-15T04:32:46.782Z,99274.00
2023-04-15T04:35:14.488Z,99277.00
2023-04-15T04:37:42.268Z,99275.00
2023-04-15T04:40:10.888Z,99277.00
2023-04-15T04:42:39.970Z,99269.00
2023-04-15T04:45:10.719Z,99270.00
2023-04-15T04:47:41.465Z,99268.00
2023-04-15T04:50:09.561Z,99270.00
2023-04-15T04:52:37.554Z,99264.00
2023-04-15T04:55:06.776Z,99261.00
2023-04-15T04:57:36.283Z,99256.00
2023-04-15T05:00:05.233Z,99253.00
2023-04-15T05:02:34.906Z,99247.00
2023-04-15T05:05:02.899Z,99251.00
2023-04-15T05:07:30.834Z,99251.00
2023-04-15T05:10:01.336Z,99251.00
2023-04-15T05:12:29.059Z,99256.00
2023-04-15T05:14:56.948Z,99261.00
2023-04-15T05:17:24.928Z,99261.00
2023-04-15T05:19:54.115Z,99257.00
2023-04-15T05:22:21.776Z,99256.00
2023-04-15T05:24:49.425Z,99259.00
2023-04-15T05:27:17.301Z,99261.00
2023-04-15T05:29:44.985Z,99261.00
2023-04-15T05:32:12.720Z,99260.00
2023-04-15T05:34:40.891Z,99271.00
2023-04-15T05:37:08.876Z,99281.00
2023-04-15T05:39:36.771Z,99276.00
2023-04-15T05:42:06.177Z,99288.00
2023-04-15T05:44:34.100Z,99286.00
2023-04-15T05:47:03.763Z,99289.00
2023-04-15T05:49:31.455Z,99290.00
2023-04-15T05:51:59.328Z,99290.00
2023-04-15T05:54:28.120Z,99288.00
2023-04-15T05:56:57.823Z,99290.00
2023-04-15T05:59:25.751Z,99292.00
2023-04-15T06:01:54.067Z,99290.00
2023-04-15T06:04:22.199Z,99297.00
2023-04-15T06:06:49.875Z,99307.00
2023-04-15T06:09:17.862Z,99304.00
2023-04-15T06:11:49.671Z,99309.00
2023-04-15T06:14:17.266Z,99310.00
2023-04-15T06:16:44.997Z,99310.00
2023-04-15T06:19:12.926Z,99300.00
2023-04-15T06:21:41.126Z,99293.00
2023-04-15T06:24:08.677Z,99310.00
2023-04-15T06:26:39.545Z,99318.00
2023-04-15T06:29:07.172Z,99324.00
2023-04-15T06:31:34.781Z,99321.00
2023-04-15T06:34:03.236Z,99321.00
2023-04-15T06:36:30.778Z,99318.00
2023-04-15T06:38:58.501Z,99320.00
2023-04-15T06:41:26.947Z,99313.00
2023-04-15T06:43:54.538Z,99311.00
2023-04-15T06:46:22.401Z,99317.00
2023-04-15T06:48:50.034Z,99318.00
2023-04-15T06:51:17.732Z,99310.00
2023-04-15T06:53:45.365Z,99309.00
2023-04-15T06:56:13.063Z,99321.00
2023-04-15T06:58:40.822Z,99316.00
2023-04-15T07:01:11.800Z,99314.00
2023-04-15T07:03:39.575Z,99311.00
2023-04-15T07:06:10.482Z,99310.00
2023-04-15T07:08:40.991Z,99318.00
2023-04-15T07:11:09.157Z,99330.00
2023-04-15T07:13:37.012Z,99334.00
2023-04-15T07:16:05.021Z,99333.00
2023-04-15T07:18:32.625Z,99327.00
2023-04-15T07:21:00.238Z,99326.00
2023-04-15T07:23:27.916Z,99321.00
2023-04-15T07:25:55.522Z,99325.00
2023-04-15T07:28:23.162Z,99334.00
2023-04-15T07:30:50.855Z,99339.00
2023-04-15T07:33:18.393Z,99338.00
2023-04-15T07:35:46.361Z,99335.00
2023-04-15T07:38:13.914Z,99335.00
2023-04-15T07:40:42.656Z,99335.00
2023-04-15T07:43:13.984Z,99323.00
2023-04-15T07:45:41.771Z,99314.00
2023-04-15T07:48:09.488Z,99320.00
2023-04-15T07:50:37.386Z,99318.00
2023-04-15T07:53:05.894Z,99333.00
2023-04-15T07:55:33.411Z,99329.00
2023-04-15T07:58:01.184Z,99347.00
2023-04-15T08:00:29.010Z,99345.00
2023-04-15T08:02:59.574Z,99334.00
2023-04-15T08:05:27.458Z,99331.00
2023-04-15T08:07:55.136Z,99340.00
2023-04-15T08:10:23.146Z,99347.00
2023-04-15T08:12:54.457Z,99352.00
2023-04-15T08:15:22.471Z,99370.00
2023-04-15T08:17:50.155Z,99377.00
2023-04-15T08:20:17.880Z,99364.00
2023-04-15T08:22:45.636Z,99354.00
2023-04-15T08:25:13.302Z,99361.00
2023-04-15T08:27:40.856Z,99358.00
2023-04-15T08:30:09.699Z,99359.00
2023-04-15T08:32:37.697Z,99370.00
2023-04-15T08:35:05.745Z,99378.00
2023-04-15T08:37:33.418Z,99364.00
2023-04-15T08:40:00.964Z,99366.00
2023-04-15T08:42:33.250Z,99370.00
2023-04-15T08:45:02.181Z,99373.00
2023-04-15T08:47:32.469Z,99371.00
2023-04-15T08:50:04.532Z,99373.00
2023-04-15T08:52:32.481Z,99374.00
2023-04-15T08:55:03.408Z,99379.00
2023-04-15T08:57:32.038Z,99368.00
2023-04-15T09:00:00.954Z,99367.00
2023-04-15T09:02:29.500Z,99376.00
2023-04-15T09:04:57.895Z,99376.00
2023-04-15T09:07:26.057Z,99377.00
2023-04-15T09:09:53.616Z,99369.00
2023-04-15T09:12:22.091Z,99372.00
2023-04-15T09:14:49.763Z,99356.00
2023-04-15T09:17:26.162Z,99355.00
2023-04-15T09:20:19.168Z,99367.00
2023-04-15T09:22:50.261Z,99369.00
2023-04-15T09:25:24.630Z,99377.00
2023-04-15T09:27:54.852Z,99386.00
2023-04-15T09:30:22.871Z,99394.00
2023-04-15T09:33:01.105Z,99390.00
2023-04-15T09:35:29.494Z,99391.00
2023-04-15T09:38:09.084Z,99399.00
2023-04-15T09:40:39.290Z,99397.00
2023-04-15T09:43:09.665Z,99395.00
2023-04-15T09:45:37.704Z,99393.00
2023-04-15T09:48:29.142Z,99406.00
2023-04-15T09:51:00.575Z,99402.00
2023-04-15T09:53:31.190Z,99411.00
2023-04-15T09:56:03.163Z,99410.00
2023-04-15T09:58:33.824Z,99413.00
2023-04-15T10:01:05.263Z,99415.00
2023-04-15T10:03:38.537Z,99413.00
2023-04-15T10:06:06.445Z,99416.00
2023-04-15T10:08:35.520Z,99419.00
2023-04-15T10:11:03.699Z,99417.00
2023-04-15T10:13:37.586Z,99418.00
2023-04-15T10:16:13.395Z,99414.00
2023-04-15T10:18:46.855Z,99413.00
2023-04-15T10:21:18.987Z,99415.00
2023-04-15T10:23:48.052Z,99414.00
2023-04-15T10:26:17.927Z,99419.00
2023-04-15T10:28:47.453Z,99423.00
2023-04-15T10:31:15.809Z,99425.00
2023-04-15T10:33:49.065Z,99428.00
2023-04-15T10:36:19.774Z,99427.00
2023-04-15T10:38:47.757Z,99420.00
2023-04-15T10:41:30.124Z,99430.00
2023-04-15T10:44:03.453Z,99442.00
2023-04-15T10:46:42.728Z,99439.00
2023-04-15T10:49:15.643Z,99437.00
2023-04-15T10:51:47.782Z,99451.00
2023-04-15T10:54:26.338Z,99452.00
2023-04-15T10:57:15.598Z,99455.00
2023-04-15T11:00:11.532Z,99450.00
2023-04-15T11:03:08.570Z,99454.00
2023-04-15T11:05:42.366Z,99461.00
2023-04-15T11:08:11.341Z,99462.00
2023-04-15T11:10:38.808Z,99454.00
2023-04-15T11:13:12.687Z,99455.00
2023-04-15T11:15:43.080Z,99457.00
2023-04-15T11:18:12.792Z,99454.00
2023-04-15T11:20:45.594Z,99465.00
2023-04-15T11:23:15.736Z,99467.00
2023-04-15T11:25:44.385Z,99481.00
2023-04-15T11:28:16.213Z,99483.00
2023-04-15T11:30:44.002Z,99483.00
2023-04-15T11:33:14.004Z,99493.00
2023-04-15T11:35:42.910Z,99488.00
2023-04-15T11:38:15.701Z,99489.00
2023-04-15T11:40:47.014Z,99493.00
2023-04-15T11:43:21.734Z,99501.00
2023-04-15T11:45:57.669Z,99494.00
2023-04-15T11:48:29.228Z,99497.00
2023-04-15T11:51:03.495Z,99494.00
2023-04-15T11:53:44.991Z,99497.00
2023-04-15T11:56:20.562Z,99500.00
2023-04-15T11:58:51.027Z,99501.00
2023-04-15T12:01:21.896Z,99501.00
2023-04-15T12:03:50.761Z,99507.00
2023-04-15T12:06:22.054Z,99514.00
2023-04-15T12:09:16.006Z,99521.00
2023-04-15T12:11:57.611Z,99527.00
2023-04-15T12:14:29.705Z,99516.00
2023-04-15T12:17:07.462Z,99512.00
2023-04-15T12:19:50.385Z,99517.00
2023-04-15T12:22:18.844Z,99523.00
2023-04-15T12:24:48.935Z,99515.00
2023-04-15T12:27:17.989Z,99532.00
2023-04-15T12:29:45.872Z,99531.00
2023-04-15T12:32:16.503Z,99529.00
2023-04-15T12:34:51.079Z,99525.00
2023-04-15T12:37:19.907Z,99538.00
2023-04-15T12:39:49.793Z,99534.00
2023-04-15T12:42:19.786Z,99540.00
2023-04-15T12:44:50.388Z,99538.00
2023-04-15T12:47:18.360Z,99540.00
2023-04-15T12:49:46.332Z,99546.00
2023-04-15T12:52:14.181Z,99548.00
2023-04-15T12:54:42.001Z,99543.00
2023-04-15T12:57:09.525Z,99540.00
2023-04-15T12:59:37.914Z,99537.00
2023-04-15T13:02:05.792Z,99545.00
2023-04-15T13:04:33.722Z,99549.00
2023-04-15T13:07:02.986Z,99546.00
2023-04-15T13:09:31.322Z,99550.00
2023-04-15T13:11:59.485Z,99555.00
2023-04-15T13:14:30.079Z,99548.00
2023-04-15T13:16:58.341Z,99549.00
2023-04-15T13:19:27.136Z,99557.00
2023-04-15T13:21:55.897Z,99554.00
2023-04-15T13:24:23.618Z,99563.00
2023-04-15T13:26:51.355Z,99570.00
2023-04-15T13:29:19.055Z,99565.00
2023-04-15T13:31:49.354Z,99575.00
2023-04-15T13:34:17.008Z,99574.00
2023-04-15T13:36:44.613Z,99580.00
2023-04-15T13:39:12.377Z,99578.00
2023-04-15T13:41:41.254Z,99587.00
2023-04-15T13:44:09.710Z,99580.00
2023-04-15T13:46:39.786Z,99584.00
2023-04-15T13:49:07.404Z,99590.00
2023-04-15T13:51:37.250Z,99586.00
2023-04-15T13:54:05.428Z,99595.00
2023-04-15T13:56:36.605Z,99592.00
2023-04-15T13:59:04.802Z,99594.00
2023-04-15T14:01:32.955Z,99599.00
2023-04-15T14:04:01.102Z,99592.00
2023-04-15T14:06:31.940Z,99599.00
2023-04-15T14:09:00.358Z,99603.00
2023-04-15T14:11:28.479Z,99602.00
2023-04-15T14:13:56.280Z,99607.00
2023-04-15T14:16:24.165Z,99599.00
2023-04-15T14:18:52.085Z,99616.00
2023-04-15T14:21:19.779Z,99613.00
2023-04-15T14:23:47.728Z,99612.00
2023-04-15T14:26:15.499Z,99613.00
2023-04-15T14:28:45.272Z,99615.00
2023-04-15T14:31:13.051Z,99628.00
2023-04-15T14:33:41.203Z,99625.00
2023-04-15T14:36:10.454Z,99620.00
2023-04-15T14:38:40.951Z,99627.00
2023-04-15T14:41:10.133Z,99629.00
2023-04-15T14:43:39.458Z,99633.00
2023-04-15T14:46:08.865Z,99633.00
2023-04-15T14:48:36.527Z,99641.00
2023-04-15T14:51:04.536Z,99640.00
2023-04-15T14:53:32.243Z,99642.00
2023-04-15T14:55:59.935Z,99640.00
2023-04-15T14:58:27.648Z,99652.00
2023-04-15T15:00:55.637Z,99655.00
2023-04-15T15:03:24.144Z,99659.00
2023-04-15T15:05:52.157Z,99658.00
2023-04-15T15:08:19.946Z,99659.00
2023-04-15T15:10:49.686Z,99665.00
2023-04-15T15:13:20.150Z,99669.00
2023-04-15T15:15:49.789Z,99675.00
2023-04-15T15:18:19.509Z,99681.00
2023-04-15T15:20:47.934Z,99678.00
2023-04-15T15:23:15.731Z,99684.00
2023-04-15T15:25:44.594Z,99682.00
2023-04-15T15:28:12.986Z,99683.00
2023-04-15T15:30:40.946Z,99682.00
2023-04-15T15:33:08.902Z,99685.00
2023-04-15T15:35:36.604Z,99688.00
2023-04-15T15:38:04.161Z,99691.00
2023-04-15T15:40:32.041Z,99691.00
2023-04-15T15:42:59.856Z,99696.00
2023-04-15T15:45:28.662Z,99701.00
2023-04-15T15:47:58.097Z,99705.00
2023-04-15T15:50:25.984Z,99707.00
2023-04-15T15:52:53.837Z,99712.00
2023-04-15T15:55:24.144Z,99704.00
2023-04-15T15:57:52.310Z,99709.00
2023-04-15T16:00:20.236Z,99709.00
2023-04-15T16:05:18.718Z,99716.00
2023-04-15T16:07:49.510Z,99719.00
2023-04-15T16:10:17.958Z,99721.00
2023-04-15T16:12:45.936Z,99723.00
2023-04-15T16:15:13.982Z,99730.00
2023-04-15T16:17:41.859Z,99729.00
2023-04-15T16:20:10.338Z,99737.00
2023-04-15T16:22:38.028Z,99737.00
2023-04-15T16:25:06.306Z,99736.00
2023-04-15T16:27:40.819Z,99744.00
2023-04-15T16:30:17.923Z,99744.00
2023-04-15T16:32:45.581Z,99747.00
2023-04-15T16:35:14.654Z,99749.00
2023-04-15T16:37:42.363Z,99749.00
2023-04-15T16:40:10.936Z,99754.00
2023-04-15T16:42:42.549Z,99758.00
2023-04-15T16:45:11.187Z,99758.00
2023-04-15T16:47:39.084Z,99761.00
2023-04-15T16:50:11.713Z,99770.00
2023-04-15T16:52:39.462Z,99773.00
2023-04-15T16:55:10.028Z,99766.00
2023-04-15T16:58:00.744Z,99782.00
2023-04-15T17:00:26.177Z,99776.00
2023-04-15T17:02:54.013Z,99787.00
2023-04-15T17:05:21.782Z,99787.00
2023-04-15T17:07:49.356Z,99794.00
2023-04-15T17:10:17.869Z,99802.00
2023-04-15T17:12:48.174Z,99801.00
2023-04-15T17:15:15.825Z,99805.00
2023-04-15T17:17:43.517Z,99811.00
2023-04-15T17:20:12.757Z,99811.00
2023-04-15T17:22:40.695Z,99811.00
2023-04-15T17:25:09.049Z,99824.00
2023-04-15T17:27:36.718Z,99811.00
2023-04-15T17:30:05.076Z,99819.00
2023-04-15T17:32:34.978Z,99825.00
2023-04-15T17:35:06.672Z,99828.00
2023-04-15T17:37:38.131Z,99831.00
2023-04-15T17:40:08.728Z,99836.00
2023-04-15T17:42:36.705Z,99836.00
2023-04-15T17:45:04.686Z,99837.00
2023-04-15T17:47:32.586Z,99840.00
2023-04-15T17:50:00.494Z,99849.00
2023-04-15T17:52:28.335Z,99848.00
2023-04-15T17:54:56.301Z,99850.00
2023-04-15T17:57:25.535Z,99854.00
2023-04-15T17:59:56.262Z,99864.00
2023-04-15T18:02:24.264Z,99862.00
2023-04-15T18:04:52.142Z,99871.00
2023-04-15T18:07:20.165Z,99872.00
2023-04-15T18:09:48.096Z,99868.00
2023-04-15T18:12:16.411Z,99881.00
2023-04-15T18:14:44.236Z,99877.00
2023-04-15T18:17:14.722Z,99886.00
2023-04-15T18:19:46.044Z,99890.00
2023-04-15T18:22:13.728Z,99896.00
2023-04-15T18:24:41.956Z,99899.00
2023-04-15T18:27:09.681Z,99905.00
2023-04-15T18:29:37.085Z,99909.00
2023-04-15T18:32:04.806Z,99915.00
2023-04-15T18:34:32.556Z,99916.00
2023-04-15T18:37:00.730Z,99921.00
2023-04-15T18:39:28.609Z,99922.00
2023-04-15T18:41:57.647Z,99934.00
2023-04-15T18:44:25.280Z,99937.00
2023-04-15T18:46:53.067Z,99943.00
2023-04-15T18:49:21.115Z,99937.00
2023-04-15T18:51:48.793Z,99945.00
2023-04-15T18:54:16.922Z,99948.00
2023-04-15T18:56:44.889Z,99947.00
2023-04-15T18:59:29.173Z,99956.00
2023-04-15T19:02:00.387Z,99964.00
2023-04-15T19:04:29.496Z,99959.00
2023-04-15T19:07:00.207Z,99962.00
2023-04-15T19:09:29.405Z,99966.00
2023-04-15T19:12:00.390Z,99962.00
2023-04-15T19:14:28.408Z,99962.00
2023-04-15T19:16:56.638Z,99968.00
2023-04-15T19:19:24.397Z,99970.00
2023-04-15T19:21:54.094Z,99969.00
2023-04-15T19:24:22.363Z,99978.00
2023-04-15T19:26:51.445Z,99977.00
2023-04-15T19:29:22.100Z,99976.00
2023-04-15T19:31:49.916Z,99980.00
2023-04-15T19:34:19.643Z,99981.00
2023-04-15T19:36:50.702Z,99986.00
2023-04-15T19:39:18.993Z,99979.00
2023-04-15T19:41:47.700Z,99990.00
2023-04-15T19:44:15.673Z,99985.00
2023-04-15T19:46:45.046Z,99989.00
2023-04-15T19:49:12.913Z,99991.00
2023-04-15T19:51:41.997Z,99993.00
2023-04-15T19:54:09.728Z,99995.00
2023-04-15T19:56:37.257Z,99991.00
2023-04-15T19:59:04.973Z,99990.00
2023-04-15T20:01:32.877Z,99987.00
2023-04-15T20:04:00.743Z,99990.00
2023-04-15T20:06:28.754Z,99986.00
2023-04-15T20:08:56.376Z,99996.00
2023-04-15T20:12:48.132Z,99990.00
2023-04-15T20:14:17.952Z,99998.00
2023-04-15T20:16:45.871Z,99997.00
2023-04-15T20:19:14.292Z,100004.00
2023-04-15T20:21:42.096Z,100003.00
2023-04-15T20:24:09.878Z,100004.00
2023-04-15T20:26:37.566Z,100008.00
2023-04-15T20:29:06.075Z,100010.00
2023-04-15T20:31:34.330Z,100019.00
2023-04-15T20:34:01.991Z,100021.00
2023-04-15T20:36:29.864Z,100018.00
2023-04-15T20:38:57.431Z,100025.00
2023-04-15T20:41:27.345Z,100025.00
2023-04-15T20:43:55.012Z,100019.00
2023-04-15T20:46:23.552Z,100021.00
2023-04-15T20:48:52.990Z,100032.00
2023-04-15T20:51:20.823Z,100028.00
2023-04-15T20:53:49.530Z,100033.00
2023-04-15T20:56:17.267Z,100042.00
2023-04-15T20:58:44.935Z,100041.00
2023-04-15T21:01:13.065Z,100041.00
2023-04-15T21:03:40.911Z,100045.00
2023-04-15T21:06:08.587Z,100047.00
2023-04-15T21:08:36.353Z,100054.00
2023-04-15T21:11:04.029Z,100049.00
2023-04-15T21:13:31.465Z,100054.00
2023-04-15T21:15:59.084Z,100052.00
2023-04-15T21:18:26.764Z,100054.00
2023-04-15T21:21:02.544Z,100059.00
2023-04-15T21:23:31.166Z,100063.00
2023-04-15T21:25:59.779Z,100064.00
2023-04-15T21:28:30.116Z,100066.00
2023-04-15T21:30:58.326Z,100066.00
2023-04-15T21:33:26.424Z,100063.00
2023-04-15T21:35:55.064Z,100070.00
2023-04-15T21:38:23.478Z,100075.00
2023-04-15T21:40:54.077Z,100080.00
2023-04-15T21:43:23.283Z,100081.00
2023-04-15T21:46:22.418Z,100086.00
2023-04-15T21:48:38.929Z,100092.00
2023-04-15T21:51:06.668Z,100089.00
2023-04-15T21:53:35.216Z,100094.00
2023-04-15T21:56:02.840Z,100098.00
2023-04-15T21:58:30.798Z,100100.00
2023-04-15T22:01:00.498Z,100094.00
2023-04-15T22:03:34.432Z,100102.00
2023-04-15T22:06:05.953Z,100106.00
2023-04-15T22:08:44.644Z,100102.00
2023-04-15T22:11:26.756Z,100097.00
2023-04-15T22:13:55.386Z,100105.00
2023-04-15T22:16:27.005Z,100111.00
2023-04-15T22:18:55.757Z,100108.00
2023-04-15T22:21:23.870Z,100104.00
2023-04-15T22:23:52.554Z,100107.00
2023-04-15T22:26:19.987Z,100107.00
2023-04-15T22:28:47.514Z,100115.00
2023-04-15T22:31:15.817Z,100111.00
2023-04-15T22:33:43.777Z,100108.00
2023-04-15T22:36:11.908Z,100122.00
2023-04-15T22:38:39.728Z,100116.00
2023-04-15T22:41:07.252Z,100115.00
2023-04-15T22:43:34.910Z,100120.00
2023-04-15T22:46:02.756Z,100121.00
2023-04-15T22:48:30.689Z,100129.00
2023-04-15T22:50:59.838Z,100136.00
2023-04-15T22:53:27.602Z,100138.00
2023-04-15T22:55:58.307Z,100137.00
2023-04-15T22:58:29.033Z,100142.00
2023-04-15T23:00:56.560Z,100142.00
2023-04-15T23:03:24.536Z,100144.00
2023-04-15T23:05:52.426Z,100151.00
2023-04-15T23:08:20.039Z,100154.00
2023-04-15T23:10:47.596Z,100153.00
2023-04-15T23:13:15.804Z,100147.00
2023-04-15T23:15:43.509Z,100153.00
2023-04-15T23:18:11.501Z,100150.00
2023-04-15T23:20:41.415Z,100163.00
2023-04-15T23:23:09.032Z,100157.00
2023-04-15T23:25:40.078Z,100161.00
2023-04-15T23:28:08.004Z,100161.00
2023-04-15T23:30:35.947Z,100163.00
2023-04-15T23:33:04.810Z,100164.00
2023-04-15T23:35:32.751Z,100169.00
2023-04-15T23:38:00.372Z,100168.00
2023-04-15T23:40:28.036Z,100165.00
2023-04-15T23:42:55.889Z,100164.00
2023-04-15T23:45:23.592Z,100165.00
2023-04-15T23:47:51.299Z,100163.00
2023-04-15T23:50:20.112Z,100165.00
2023-04-15T23:52:47.776Z,100168.00
2023-04-15T23:55:15.820Z,100158.00
2023-04-15T23:57:46.030Z,100167.00
